Weather observations for the past three days for
Valdez 2
Imperial (Metric)
Date Time (akdt) Wind (mph) Vis. (mi.) Weather Sky Cond. Temperature (ºF) Relative Humidity Wind Chill (°F) Heat Index (°F) Pressure Precipitation (in)
Air Dwpt 6 hour altimeter (in) sea level (mb) 1 hr 3 hr 6 hr
Max. Min.
04 16:56 SW 3 10.00 Mostly Cloudy BKN065 57.9 45 62% 30.23 1023.4
04 15:56 SW 3 10.00 Mostly Cloudy BKN060 55.9 42.1 57 50 60% 30.24 1023.8
04 14:56 SW 3 10.00 Mostly Cloudy BKN060 55.9 45 67% 30.23 1023.7
04 13:56 W 3 10.00 Mostly Cloudy BKN060 BKN150 55 44.1 67% 30.24 1023.9
04 12:56 Calm 10.00 Mostly Cloudy BKN060 BKN130 54 44.1 69% 30.25 1024.2
04 11:56 Calm 10.00 Mostly Cloudy BKN055 BKN130 53.1 44.1 72% 30.25 1024.1
04 10:56 Calm 10.00 Mostly Cloudy BKN055 52 43 72% 30.25 1024.1
04 09:56 Calm 10.00 Mostly Cloudy FEW055 BKN130 50 43 50 39.9 77% 30.25 1024.1
04 08:56 Calm 10.00 Mostly Cloudy BKN150 46 41 83% 30.25 1024.3
04 07:56 Calm 10.00 Partly Cloudy SCT150 41 41 100% 30.25 1024.3
04 06:56 Calm 10.00 Partly Cloudy SCT130 39.9 39.9 100% 30.24 1024.0
04 05:56 E 3 10.00 Fair CLR 41 39.9 96% 30.25 1024.2
04 04:56 Calm 10.00 Fair CLR 42.1 42.1 100% 30.24 1023.9
04 03:56 Calm 10.00 Fair CLR 43 39 48.9 42.1 86% 30.24 1023.9
04 02:56 E 5 10.00 Fair CLR 42.1 42.1 100% 40 30.25 1024.0
04 01:56 E 3 10.00 Fair CLR 43 42.1 97% 30.26 1024.5
04 00:56 E 5 10.00 Fair CLR 44.1 39.9 85% 42 30.25 1024.1
03 23:56 E 5 10.00 Fair CLR 44.1 41 89% 42 30.24 1023.9
03 22:56 Calm 10.00 Fair CLR 46.9 41 80% 30.24 1023.7
03 21:56 E 6 10.00 Partly Cloudy SCT080 SCT150 48 41 64 48 77% 46 30.23 1023.6
03 20:56 E 5 10.00 Mostly Cloudy FEW070 SCT080 BKN120 53.1 44.1 72% 30.22 1023.3
03 19:56 E 3 9.00 Mostly Cloudy FEW080 BKN100 57.9 45 62% 30.22 1023.1
03 18:56 S 3 10.00 Mostly Cloudy BKN100 62.1 41 46% 30.22 1023.0
03 17:56 Calm 10.00 Partly Cloudy SCT100 SCT250 63 39 41% 30.21 1022.8
03 16:56 W 3 10.00 Partly Cloudy FEW100 FEW150 SCT300 59 39 48% 30.22 1023.0
03 15:56 W 5 10.00 Partly Cloudy SCT150 SCT300 64 37.9 64 51.1 38% 30.21 1022.7
03 14:56 Calm 10.00 Partly Cloudy FEW200 SCT300 61 37 41% 30.21 1023.0
03 13:56 SW 5 10.00 Partly Cloudy SCT200 SCT300 61 37 41% 30.21 1022.8
03 12:56 Calm 10.00 Mostly Cloudy FEW200 BKN300 57.9 37 46% 30.21 1022.7
03 11:56 W 7 10.00 Mostly Cloudy FEW200 BKN250 57 37.9 49% 30.21 1022.8
03 10:56 W 6 10.00 Mostly Cloudy BKN250 54 39 57% 30.2 1022.4
03 09:56 Calm 10.00 Mostly Cloudy SCT200 BKN300 51.1 37.9 51.1 37.9 61% 30.18 1021.9
03 08:56 E 3 10.00 Partly Cloudy FEW200 SCT300 46 37.9 73% 30.18 1021.7
03 07:56 E 6 10.00 Partly Cloudy FEW200 SCT300 39.9 37.9 93% 36 30.16 1021.3
03 06:56 NE 6 15.00 Partly Cloudy FEW200 SCT300 39.2 37.4 93% 36 30.14 0.0
03 05:56 N 5 10.00 Fair CLR 39.9 37.9 93% 37 30.14 1020.5
03 04:56 Calm 10.00 Fair CLR 41 37.9 89% 30.12 1019.6
03 03:56 SE 3 10.00 Fair CLR 41 39 55.9 39.9 93% 30.1 1019.2
03 01:56 E 5 10.00 Fair CLR 42.1 39 89% 40 30.07 1018.2
03 00:56 E 6 10.00 Fair CLR 46 37.9 73% 44 30.06 1017.8
02 23:56 Calm 10.00 Fair CLR 48.9 36 61% 30.05 1017.2
02 22:56 NE 5 10.00 Fair CLR 51.1 37 59% 30.02 1016.3
02 21:56 W 7 10.00 Fair CLR 54 37 68 52 53% 29.99 1015.3
02 20:56 Calm 10.00 A Few Clouds FEW200 FEW300 55 36 49% 29.97 1014.6
02 19:56 Calm 10.00 A Few Clouds FEW300 62.1 37.9 41% 29.96 1014.3
02 18:56 NW 6 10.00 A Few Clouds FEW300 66.9 28 23% 29.94 1013.7
02 17:56 Calm 10.00 A Few Clouds FEW200 FEW300 66.9 28.9 24% 29.93 1013.4
02 16:56 E 9 10.00 A Few Clouds FEW200 66.9 28.9 24% 29.92 1012.9
02 15:56 E 9 10.00 A Few Clouds FEW200 66.9 30 66.9 48 25% 29.9 1012.4
02 14:56 E 15 G 31 10.00 A Few Clouds FEW200 66 30.9 27% 29.88 1011.6
02 13:56 E 24 G 35 10.00 A Few Clouds and Breezy FEW180 66 32 28% 29.86 1010.8
02 12:56 SW 7 10.00 A Few Clouds FEW100 57.9 41 53% 29.84 1010.1
02 11:56 SW 6 10.00 A Few Clouds FEW100 55 39 55% 29.82 1009.6
02 10:56 Calm 10.00 Fair CLR 52 39.9 64% 29.8 1009.0
02 09:56 Calm 10.00 Fair CLR 48 39.9 48 37 74% 29.79 1008.7
02 08:56 S 3 10.00 Fair CLR 44.1 41 89% 29.78 1008.2
02 07:56 E 3 10.00 A Few Clouds FEW300 37.9 37.9 100% 29.78 1008.2
02 06:56 Calm 10.00 Partly Cloudy FEW100 SCT300 37 37 100% 29.77 1007.8
02 05:56 NE 3 10.00 Fair CLR 39 39 100% 29.76 1007.4
02 04:56 E 3 10.00 Fair CLR 39 39 100% 29.75 1007.1
02 03:56 E 3 10.00 Fair CLR 39.9 39.9 53.1 39 100% 29.75 1007.1
02 02:56 E 5 10.00 Fair CLR 41 41 100% 38 29.75 1007.3
02 01:56 E 3 10.00 Fair CLR 41 41 100% 29.75 1007.1
02 00:56 Calm 10.00 Fair CLR 44.1 39.9 85% 29.74 1007.0
01 23:56 E 5 10.00 Fair CLR 46 41 83% 44 29.74 1007.0
01 22:56 Calm 10.00 A Few Clouds FEW200 48 41 77% 29.74 1006.6
01 21:56 Calm 10.00 A Few Clouds FEW200 51.1 39.9 66.9 51.1 66% 29.72 1006.1
01 20:56 Calm 10.00 A Few Clouds FEW200 54 41 62% 29.72 1006.0
01 19:56 N 3 10.00 A Few Clouds FEW200 60.1 44.1 56% 29.71 1005.6
01 18:56 NE 8 G 16 10.00 Fair CLR 66 35.1 32% 29.7 1005.4
01 17:56 NE 10 G 21 10.00 A Few Clouds FEW200 66.9 34 30% 29.7 1005.3
Date Time (akdt) Wind (mph) Vis. (mi.) Weather Sky Cond. Air Dwpt Max. Min. Relative Humidity Wind Chill (°F) Heat Index (°F) altimeter (in) sea level (mb) 1 hr 3 hr 6 hr
6 hour
Temperature (ºF) Pressure Precipitation (in)